Time;durP1;ratioP1;P1;durP2;ratioP2;P2;SDS_P1;SDS_P2;PMS_P1;PMS_P2;Temp;Humidity;BMP_temperature;BMP_pressure;BME280_temperature;BME280_humidity;BME280_pressure;Samples;Min_cycle;Max_cycle;Signal;HPM_P1;HPM_P2
2022/08/24 00:00:13;;;;;;;4.18;1.55;;;;;;;17.66;86.97;156957.22;4952165;28;20126;-78
2022/08/24 00:02:38;;;;;;;3.47;1.30;;;;;;;17.67;86.66;156959.81;4953351;29;20567;-78
2022/08/24 00:05:06;;;;;;;8.52;1.70;;;;;;;17.66;86.30;156957.22;4940351;29;20285;-79
2022/08/24 00:07:33;;;;;;;6.03;1.40;;;;;;;17.83;85.13;156999.75;4929971;29;20129;-79
2022/08/24 00:09:59;;;;;;;5.65;1.45;;;;;;;17.82;85.50;156997.13;4951969;28;20038;-79
2022/08/24 00:12:25;;;;;;;6.10;1.60;;;;;;;17.85;85.63;157004.94;4951446;28;20046;-79
2022/08/24 00:14:51;;;;;;;5.47;1.50;;;;;;;17.84;85.96;157003.66;4947337;28;20155;-79
2022/08/24 00:17:19;;;;;;;5.82;1.55;;;;;;;17.79;86.49;156990.72;4933188;29;20035;-79
2022/08/24 00:19:45;;;;;;;5.18;1.30;;;;;;;17.72;86.87;156972.66;4923256;29;20047;-81
2022/08/24 00:22:12;;;;;;;4.80;1.75;;;;;;;17.60;87.43;156943.03;4958782;28;20339;-79
2022/08/24 00:24:37;;;;;;;6.00;1.10;;;;;;;17.49;88.05;156915.97;4945697;29;20027;-78
2022/08/24 00:27:05;;;;;;;4.15;1.63;;;;;;;17.45;88.34;156904.41;4965174;28;20120;-78
2022/08/24 00:29:31;;;;;;;5.07;1.30;;;;;;;17.55;87.37;156930.16;4938037;28;20035;-78
2022/08/24 00:31:57;;;;;;;4.32;1.25;;;;;;;17.57;87.78;156934.03;4935443;29;20145;-78
2022/08/24 00:34:25;;;;;;;6.05;1.92;;;;;;;17.61;88.01;156945.66;4935430;29;20078;-79
2022/08/24 00:36:52;;;;;;;5.07;1.38;;;;;;;17.57;87.74;156934.03;4951360;28;20106;-79
2022/08/24 00:39:18;;;;;;;4.30;1.20;;;;;;;17.57;88.33;156935.31;4944952;28;20039;-78
2022/08/24 00:41:47;;;;;;;3.38;1.35;;;;;;;17.64;87.90;156952.06;4928392;29;20094;-77
2022/08/24 00:44:15;;;;;;;4.60;1.38;;;;;;;17.65;87.26;156955.94;4935360;29;20117;-78
2022/08/24 00:47:12;;;;;;;5.25;1.42;;;;;;;17.54;88.01;156926.28;4956551;28;20043;-78
2022/08/24 00:49:45;;;;;;;7.55;1.42;;;;;;;17.48;88.61;156912.16;4945434;29;20051;-78
2022/08/24 00:52:15;;;;;;;3.80;1.40;;;;;;;17.44;89.49;156901.81;4934207;29;20031;-78
2022/08/24 00:54:45;;;;;;;6.07;1.52;;;;;;;17.42;89.01;156896.66;4964737;28;20409;-76
2022/08/24 00:57:13;;;;;;;5.93;1.30;;;;;;;17.46;89.08;156906.97;4948743;28;20031;-78
2022/08/24 00:59:45;;;;;;;4.35;1.30;;;;;;;17.46;89.12;156906.97;4914274;29;20047;-77
2022/08/24 01:02:17;;;;;;;10.95;1.63;;;;;;;17.44;89.14;156901.81;4947848;29;20516;-79
2022/08/24 01:04:50;;;;;;;5.15;1.40;;;;;;;17.44;89.60;156903.13;4920543;29;20038;-77
2022/08/24 01:07:15;;;;;;;4.95;1.52;;;;;;;17.47;89.10;156909.56;4929103;29;20106;-78
2022/08/24 01:09:41;;;;;;;2.47;1.25;;;;;;;17.44;89.65;156903.13;4947004;28;20031;-78
2022/08/24 01:12:07;;;;;;;4.35;1.48;;;;;;;17.42;90.14;156896.66;4948277;28;20036;-79
2022/08/24 01:14:33;;;;;;;7.03;1.35;;;;;;;17.41;90.08;156895.38;4948169;28;20113;-75
2022/08/24 01:19:53;;;;;;;6.63;1.60;;;;;;;17.47;90.76;156910.81;4927208;29;20086;-78
2022/08/24 01:22:50;;;;;;;3.92;1.38;;;;;;;17.40;91.18;156891.50;4916601;29;20517;-79
2022/08/24 01:25:16;;;;;;;5.65;1.73;;;;;;;17.41;91.58;156894.09;4945553;28;20038;-77
2022/08/24 01:27:42;;;;;;;3.65;1.45;;;;;;;17.46;91.38;156906.97;4951948;28;20666;-79
2022/08/24 01:30:12;;;;;;;5.55;1.63;;;;;;;17.50;91.42;156917.31;4930715;29;20035;-80
2022/08/24 01:32:39;;;;;;;6.18;1.70;;;;;;;17.42;91.63;156897.97;4949265;28;20035;-79
2022/08/24 01:35:06;;;;;;;4.80;1.42;;;;;;;17.32;92.62;156872.19;4916840;29;20490;-79
2022/08/24 01:37:34;;;;;;;3.05;1.40;;;;;;;17.19;93.93;156839.97;4946864;28;20031;-81
2022/08/24 01:40:05;;;;;;;4.10;1.38;;;;;;;17.01;95.49;156794.91;4919326;29;20254;-80
2022/08/24 01:42:33;;;;;;;5.63;1.50;;;;;;;16.86;95.64;156756.28;4944321;28;20059;-81
2022/08/24 01:44:59;;;;;;;6.50;1.63;;;;;;;16.73;96.73;156725.31;4946665;29;20106;-79
2022/08/24 01:47:25;;;;;;;2.00;1.40;;;;;;;16.57;98.24;156682.81;4915676;29;20549;-80
2022/08/24 01:49:51;;;;;;;3.30;1.63;;;;;;;16.52;99.42;156671.25;4930107;29;20117;-80
2022/08/24 01:52:24;;;;;;;5.03;1.65;;;;;;;16.52;100.00;156671.25;4913881;29;20047;-78
2022/08/24 01:54:51;;;;;;;4.00;1.50;;;;;;;16.42;100.00;156646.75;4966245;28;20039;-80
2022/08/24 01:57:16;;;;;;;5.28;1.40;;;;;;;16.39;100.00;156639.06;4950798;29;20035;-78
2022/08/24 01:59:43;;;;;;;4.45;1.60;;;;;;;16.45;100.00;156654.50;4961420;28;20039;-79
2022/08/24 02:02:18;;;;;;;3.92;1.55;;;;;;;16.52;100.00;156672.53;4930177;29;20078;-79
2022/08/24 02:04:44;;;;;;;6.68;1.63;;;;;;;16.53;100.00;156673.81;4934724;29;20062;-79
2022/08/24 02:07:12;;;;;;;4.00;1.92;;;;;;;16.38;100.00;156635.19;4963440;28;20042;-80
2022/08/24 02:09:37;;;;;;;6.10;1.83;;;;;;;16.37;100.00;156632.59;4936098;28;20457;-81
2022/08/24 02:12:04;;;;;;;3.95;1.50;;;;;;;16.32;100.00;156621.03;4966826;28;20038;-78
2022/08/24 02:14:34;;;;;;;5.90;2.00;;;;;;;16.30;100.00;156615.88;4963896;28;20490;-76
2022/08/24 02:17:03;;;;;;;6.13;1.90;;;;;;;16.27;100.00;156609.41;4932984;28;20042;-78
2022/08/24 02:19:28;;;;;;;6.28;2.13;;;;;;;16.27;100.00;156609.41;4952336;28;20039;-76
2022/08/24 02:21:54;;;;;;;4.18;1.90;;;;;;;16.31;100.00;156619.75;4945400;28;20039;-76
2022/08/24 02:24:20;;;;;;;5.13;2.20;;;;;;;16.32;100.00;156621.03;4951440;28;20048;-77
2022/08/24 02:26:46;;;;;;;5.70;1.60;;;;;;;16.44;100.00;156650.63;4964526;28;20117;-77
2022/08/24 02:29:12;;;;;;;7.32;2.15;;;;;;;16.49;100.00;156664.78;4949504;28;20035;-77
2022/08/24 02:31:37;;;;;;;5.85;1.90;;;;;;;16.54;100.00;156677.69;4934275;28;20043;-77
2022/08/24 02:34:03;;;;;;;6.18;2.45;;;;;;;16.46;100.00;156655.78;4964522;28;20043;-77
2022/08/24 02:36:30;;;;;;;5.28;1.98;;;;;;;16.42;100.00;156646.75;4968586;28;20039;-77
2022/08/24 02:38:57;;;;;;;3.05;1.90;;;;;;;16.42;100.00;156646.75;4945519;29;20062;-76
2022/08/24 02:41:24;;;;;;;4.93;1.70;;;;;;;16.50;100.00;156666.06;4935782;28;20501;-78
2022/08/24 02:43:50;;;;;;;5.10;1.75;;;;;;;16.46;100.00;156655.78;4981275;28;20035;-77
2022/08/24 02:46:21;;;;;;;8.40;2.00;;;;;;;16.42;100.00;156646.75;4933263;28;20125;-77
2022/08/24 02:48:48;;;;;;;8.20;1.83;;;;;;;16.37;100.00;156633.91;4967673;28;20141;-78
2022/08/24 02:51:23;;;;;;;5.15;2.20;;;;;;;16.34;100.00;156627.44;4950788;28;20046;-77
2022/08/24 02:53:49;;;;;;;4.07;2.20;;;;;;;16.21;100.00;156593.97;4969122;28;20035;-79
2022/08/24 02:56:16;;;;;;;6.55;1.80;;;;;;;16.09;100.00;156564.38;4952226;28;20074;-77
2022/08/24 02:58:43;;;;;;;4.72;1.88;;;;;;;16.05;100.00;156554.09;4950569;28;20516;-77
2022/08/24 03:01:11;;;;;;;6.90;2.05;;;;;;;15.92;100.00;156520.63;4949428;28;20579;-78
2022/08/24 03:03:37;;;;;;;7.25;1.92;;;;;;;15.76;100.00;156482.03;4950018;28;20037;-75
2022/08/24 03:06:04;;;;;;;6.32;2.35;;;;;;;15.71;100.00;156467.81;4949929;28;20232;-76
2022/08/24 03:08:30;;;;;;;5.00;1.88;;;;;;;15.70;100.00;156465.22;4947245;28;20500;-77
2022/08/24 03:10:55;;;;;;;3.45;1.95;;;;;;;15.72;100.00;156470.38;4950008;28;20050;-77
2022/08/24 03:13:21;;;;;;;5.15;1.85;;;;;;;15.66;100.00;156456.22;4945359;28;20034;-77
2022/08/24 03:15:47;;;;;;;6.88;2.00;;;;;;;15.54;100.00;156425.34;4966560;28;20051;-77
2022/08/24 03:18:13;;;;;;;7.07;1.80;;;;;;;15.48;100.00;156411.19;4980277;28;20058;-77
2022/08/24 03:20:38;;;;;;;7.25;2.25;;;;;;;15.55;100.00;156427.91;4965335;28;20045;-76
2022/08/24 03:23:04;;;;;;;6.55;2.05;;;;;;;15.59;100.00;156438.19;4949785;28;20039;-76
2022/08/24 03:25:31;;;;;;;4.55;2.08;;;;;;;15.53;100.00;156424.03;4948462;28;20085;-77
2022/08/24 03:27:57;;;;;;;5.47;2.33;;;;;;;15.44;100.00;156400.88;4933136;29;20478;-78
2022/08/24 03:30:23;;;;;;;5.47;2.28;;;;;;;15.36;100.00;156381.56;4967575;28;20050;-77
2022/08/24 03:32:48;;;;;;;2.70;2.10;;;;;;;15.40;100.00;156389.31;4952845;28;20039;-77
2022/08/24 03:35:16;;;;;;;7.03;2.15;;;;;;;15.34;100.00;156375.16;4966927;28;20066;-77
2022/08/24 03:37:43;;;;;;;5.75;2.05;;;;;;;15.31;100.00;156368.75;4951234;28;20509;-77
2022/08/24 03:40:11;;;;;;;10.77;2.45;;;;;;;15.25;100.00;156352.00;4951465;28;20405;-77
2022/08/24 03:42:38;;;;;;;4.75;2.45;;;;;;;15.26;100.00;156354.59;4950687;28;20027;-77
2022/08/24 03:45:04;;;;;;;4.47;2.15;;;;;;;15.21;100.00;156342.97;4970589;28;20085;-77
2022/08/24 03:47:32;;;;;;;8.50;2.45;;;;;;;15.26;100.00;156354.59;4967318;28;20062;-78
2022/08/24 03:49:57;;;;;;;6.82;2.20;;;;;;;15.25;100.00;156353.25;4966338;28;20504;-78
2022/08/24 03:52:23;;;;;;;4.50;2.40;;;;;;;15.29;100.00;156363.53;4970642;28;20085;-78
2022/08/24 03:54:51;;;;;;;9.93;2.80;;;;;;;15.29;100.00;156362.28;4970368;28;20074;-78
2022/08/24 03:57:17;;;;;;;7.70;2.50;;;;;;;15.28;100.00;156361.00;4986229;28;20129;-78
2022/08/24 03:59:43;;;;;;;6.45;2.55;;;;;;;15.29;100.00;156362.28;4967388;28;20552;-75
2022/08/24 04:02:08;;;;;;;6.18;2.53;;;;;;;15.22;100.00;156344.25;4962965;28;20058;-77
2022/08/24 04:04:34;;;;;;;5.13;2.38;;;;;;;15.16;100.00;156330.09;4954106;28;20649;-77
2022/08/24 04:07:00;;;;;;;6.97;2.53;;;;;;;15.12;100.00;156321.09;4971388;28;20027;-77
2022/08/24 04:09:26;;;;;;;10.88;3.00;;;;;;;15.07;100.00;156306.94;4971344;28;20035;-77
2022/08/24 04:11:53;;;;;;;6.82;2.80;;;;;;;14.98;100.00;156285.09;4965060;28;20484;-78
2022/08/24 04:14:21;;;;;;;8.18;2.78;;;;;;;14.97;100.00;156282.50;4952336;28;20050;-77
2022/08/24 04:16:51;;;;;;;8.23;2.97;;;;;;;14.94;100.00;156274.81;4953147;28;20034;-77
2022/08/24 04:19:22;;;;;;;6.07;2.40;;;;;;;14.88;100.00;156259.34;4954168;28;20046;-75
2022/08/24 04:21:48;;;;;;;5.53;2.45;;;;;;;14.87;100.00;156258.06;4968258;28;20058;-78
2022/08/24 04:24:15;;;;;;;6.63;2.38;;;;;;;14.88;100.00;156259.34;4968361;28;20034;-77
2022/08/24 04:26:41;;;;;;;5.82;2.53;;;;;;;14.89;100.00;156261.94;4970859;28;20033;-79
2022/08/24 04:29:10;;;;;;;7.28;2.65;;;;;;;14.89;100.00;156263.22;4969592;28;20062;-77
2022/08/24 04:31:41;;;;;;;;;;;;;;;14.90;100.00;156264.47;4956630;28;20077;-77
2022/08/24 04:34:09;;;;;;;4.10;2.50;;;;;;;14.86;100.00;156255.53;4970844;28;19918;-76
2022/08/24 04:36:35;;;;;;;10.20;2.88;;;;;;;14.94;100.00;156276.09;4968273;28;20102;-77
2022/08/24 04:39:02;;;;;;;8.00;2.70;;;;;;;14.95;100.00;156278.63;4968367;28;20034;-75
2022/08/24 04:41:56;;;;;;;7.68;2.67;;;;;;;14.94;100.00;156276.09;4967511;28;20047;-77
2022/08/24 04:44:22;;;;;;;6.32;2.70;;;;;;;15.05;100.00;156301.78;4953977;28;20042;-77
2022/08/24 04:46:48;;;;;;;6.57;2.75;;;;;;;15.04;100.00;156300.53;4970472;28;20484;-76
2022/08/24 04:49:13;;;;;;;10.60;2.70;;;;;;;15.10;100.00;156315.94;4953381;28;20039;-76
2022/08/24 04:51:39;;;;;;;6.60;2.65;;;;;;;15.11;100.00;156318.53;4967152;28;20515;-77
2022/08/24 04:54:07;;;;;;;11.25;2.95;;;;;;;15.16;100.00;156330.09;4970268;28;20039;-77
2022/08/24 04:56:34;;;;;;;7.28;2.88;;;;;;;15.22;100.00;156344.25;4954516;28;20077;-76
2022/08/24 04:59:01;;;;;;;8.55;2.70;;;;;;;15.30;100.00;156366.13;4972250;28;20501;-77
2022/08/24 05:01:29;;;;;;;5.80;2.42;;;;;;;15.28;100.00;156361.00;4973464;28;20054;-76
2022/08/24 05:03:55;;;;;;;8.40;2.65;;;;;;;15.30;100.00;156364.88;4961418;28;20035;-76
2022/08/24 05:06:23;;;;;;;8.07;2.60;;;;;;;15.48;100.00;156411.19;4955604;28;20392;-77
2022/08/24 05:08:50;;;;;;;9.68;2.90;;;;;;;15.59;100.00;156438.19;4986417;28;20038;-77
2022/08/24 05:11:18;;;;;;;5.53;2.97;;;;;;;15.71;100.00;156469.09;4939551;28;20043;-77
2022/08/24 05:13:44;;;;;;;7.10;2.80;;;;;;;15.82;100.00;156496.13;4952716;28;20071;-76
2022/08/24 05:16:13;;;;;;;9.10;2.85;;;;;;;15.96;100.00;156532.19;4938333;28;20129;-77
2022/08/24 05:18:40;;;;;;;6.82;2.78;;;;;;;16.05;100.00;156552.78;4933258;28;20047;-76
2022/08/24 05:21:08;;;;;;;8.55;3.15;;;;;;;16.15;100.00;156579.81;4936226;28;20038;-77
2022/08/24 05:23:35;;;;;;;9.32;2.78;;;;;;;16.16;100.00;156581.09;4949349;28;20059;-77
2022/08/24 05:26:10;;;;;;;9.25;2.83;;;;;;;16.19;100.00;156588.84;4937567;28;20058;-77
2022/08/24 05:28:38;;;;;;;8.38;2.72;;;;;;;16.26;100.00;156605.59;4966990;28;20453;-76
2022/08/24 05:31:16;;;;;;;8.40;3.05;;;;;;;16.47;100.00;156658.38;4966110;28;20717;-77
2022/08/24 05:33:42;;;;;;;9.07;2.85;;;;;;;16.53;100.00;156675.09;4967607;28;20090;-75
2022/08/24 05:36:25;;;;;;;8.18;2.75;;;;;;;16.71;100.00;156718.91;4940772;28;20031;-75
2022/08/24 05:38:53;;;;;;;6.57;2.40;;;;;;;16.83;100.00;156748.56;4966594;28;20121;-76
2022/08/24 05:41:19;;;;;;;7.03;2.78;;;;;;;16.98;100.00;156785.91;4965600;28;20047;-77
2022/08/24 05:43:51;;;;;;;8.48;3.17;;;;;;;17.07;100.00;156810.38;4933188;28;20074;-76
2022/08/24 05:46:17;;;;;;;7.82;2.65;;;;;;;17.15;100.00;156828.41;4968639;28;20070;-77
2022/08/24 05:48:43;;;;;;;4.93;2.90;;;;;;;17.21;100.00;156845.13;4968992;28;20038;-75
2022/08/24 05:51:20;;;;;;;5.95;2.85;;;;;;;17.36;100.00;156881.22;4954709;28;20042;-77
2022/08/24 05:53:55;;;;;;;13.82;3.20;;;;;;;17.41;100.00;156894.09;4954124;28;20039;-77
2022/08/24 05:56:23;;;;;;;8.45;2.70;;;;;;;17.57;100.00;156934.03;4968504;28;20094;-76
2022/08/24 05:58:49;;;;;;;10.55;2.85;;;;;;;17.61;100.00;156944.31;4965061;28;20050;-76
2022/08/24 06:01:21;;;;;;;5.50;2.88;;;;;;;17.68;100.00;156962.38;4966599;28;20042;-76
2022/08/24 06:03:48;;;;;;;9.85;2.97;;;;;;;17.80;100.00;156992.00;4950724;28;20038;-78
2022/08/24 06:06:16;;;;;;;12.57;3.00;;;;;;;17.92;100.00;157021.72;4950682;28;20540;-74
2022/08/24 06:08:46;;;;;;;9.73;2.90;;;;;;;18.01;100.00;157044.91;4939627;28;20130;-77
2022/08/24 06:11:28;;;;;;;8.60;2.88;;;;;;;18.07;100.00;157061.63;4950415;28;20087;-78
2022/08/24 06:13:57;;;;;;;12.10;2.85;;;;;;;18.12;100.00;157071.94;4950719;28;20113;-76
2022/08/24 06:16:23;;;;;;;8.25;2.90;;;;;;;18.21;100.00;157096.41;4970441;28;20051;-78
2022/08/24 06:18:52;;;;;;;9.93;2.45;;;;;;;18.26;100.00;157108.03;4952112;28;20047;-75
2022/08/24 06:21:24;;;;;;;9.02;2.60;;;;;;;18.36;100.00;157133.81;4967763;28;20037;-77
2022/08/24 06:23:51;;;;;;;5.32;2.50;;;;;;;18.42;100.00;157147.97;4968428;28;20106;-76
2022/08/24 06:29:05;;;;;;;11.05;3.00;;;;;;;18.50;100.00;157168.63;4963811;28;20661;-74
2022/08/24 06:31:36;;;;;;;6.15;2.40;;;;;;;18.64;100.00;157204.69;4967853;28;20054;-77
2022/08/24 06:34:02;;;;;;;6.78;2.28;;;;;;;18.76;100.00;157234.38;4934864;28;20133;-78
2022/08/24 06:36:28;;;;;;;9.02;2.65;;;;;;;18.93;100.00;157276.97;4951895;28;20046;-76
2022/08/24 06:38:53;;;;;;;9.00;3.10;;;;;;;18.99;100.00;157291.16;4967718;28;20038;-76
2022/08/24 06:41:20;;;;;;;9.23;3.03;;;;;;;19.06;100.00;157310.50;4964510;28;20566;-77
2022/08/24 06:43:46;;;;;;;9.02;2.72;;;;;;;19.11;100.00;157322.09;4967153;28;20043;-76
2022/08/24 06:46:13;;;;;;;4.28;2.45;;;;;;;19.14;100.00;157328.56;4950844;28;20035;-78
2022/08/24 06:48:42;;;;;;;6.70;2.88;;;;;;;19.29;100.00;157365.91;4951141;28;20038;-76
2022/08/24 06:51:15;;;;;;;5.80;2.25;;;;;;;19.48;100.00;157413.63;4967579;28;20042;-77
2022/08/24 06:53:42;;;;;;;5.40;2.53;;;;;;;19.67;100.00;157461.38;4975762;28;20441;-76
2022/08/24 06:56:10;;;;;;;7.97;2.60;;;;;;;19.92;100.00;157524.63;4963981;28;20041;-77
2022/08/24 06:58:36;;;;;;;7.13;2.60;;;;;;;19.97;100.00;157538.81;4971384;28;20086;-76
2022/08/24 07:01:20;;;;;;;6.68;2.42;;;;;;;20.13;100.00;157577.50;4943081;28;20039;-76
2022/08/24 07:03:46;;;;;;;8.27;3.20;;;;;;;20.14;100.00;157581.41;4952446;28;20425;-76
2022/08/24 07:06:33;;;;;;;6.75;2.38;;;;;;;20.32;100.00;157625.25;4967645;28;20039;-76
2022/08/24 07:08:59;;;;;;;10.10;2.97;;;;;;;20.33;100.00;157629.13;4967973;28;20035;-76
2022/08/24 07:11:25;;;;;;;6.53;2.63;;;;;;;20.38;100.00;157642.03;4950751;28;20070;-76
2022/08/24 07:13:52;;;;;;;6.93;2.45;;;;;;;20.52;100.00;157675.59;4950438;28;20031;-76
2022/08/24 07:16:19;;;;;;;4.55;2.30;;;;;;;20.55;100.00;157684.63;4950964;28;20105;-76
2022/08/24 07:18:49;;;;;;;6.95;2.45;;;;;;;20.66;100.00;157711.75;4955142;28;20051;-77
2022/08/24 07:21:18;;;;;;;8.60;2.60;;;;;;;20.78;100.00;157741.47;4971976;28;20085;-76
2022/08/24 07:23:46;;;;;;;7.70;2.70;;;;;;;20.84;100.00;157756.94;4971787;28;20031;-76
2022/08/24 07:26:18;;;;;;;5.30;2.38;;;;;;;20.94;100.00;157782.72;4957585;28;20038;-76
2022/08/24 07:28:43;;;;;;;8.38;2.47;;;;;;;21.07;99.94;157815.00;4966052;28;20093;-76
2022/08/24 07:31:12;;;;;;;3.83;2.13;;;;;;;21.24;99.09;157857.59;4971833;28;20404;-77
2022/08/24 07:33:46;;;;;;;4.75;2.30;;;;;;;21.41;98.44;157898.94;4970530;28;20073;-77
2022/08/24 07:36:13;;;;;;;6.80;2.25;;;;;;;21.61;96.59;157950.63;4968331;28;20055;-77
2022/08/24 07:38:40;;;;;;;9.25;2.50;;;;;;;21.63;96.56;157955.78;4955570;28;20053;-77
2022/08/24 07:41:06;;;;;;;6.15;2.50;;;;;;;21.74;95.68;157984.19;4952205;28;20038;-77
2022/08/24 07:43:33;;;;;;;5.57;2.00;;;;;;;21.95;95.05;158035.84;4954232;28;20470;-77
2022/08/24 07:45:59;;;;;;;8.85;2.08;;;;;;;22.01;93.12;158051.34;4952662;28;20070;-77
2022/08/24 07:48:25;;;;;;;9.32;2.50;;;;;;;22.14;92.73;158083.63;4965950;28;20109;-76
2022/08/24 07:50:52;;;;;;;6.43;2.10;;;;;;;22.22;92.47;158103.00;4968518;28;20497;-78
2022/08/24 07:53:17;;;;;;;6.15;2.03;;;;;;;22.34;90.81;158135.34;4943282;28;20086;-78
2022/08/24 07:55:51;;;;;;;4.93;2.00;;;;;;;22.35;91.79;158137.91;4969837;28;20236;-76
2022/08/24 07:58:17;;;;;;;6.57;2.35;;;;;;;22.45;90.64;158161.16;4954061;28;20038;-76
2022/08/24 08:00:46;;;;;;;5.93;2.30;;;;;;;22.39;90.00;158146.97;4952096;28;20065;-78
2022/08/24 08:03:12;;;;;;;8.30;2.83;;;;;;;22.34;90.00;158135.34;4970020;28;20027;-79
2022/08/24 08:05:42;;;;;;;3.55;2.22;;;;;;;22.45;89.88;158161.16;4971704;28;20102;-77
2022/08/24 08:08:08;;;;;;;6.28;2.35;;;;;;;22.51;89.39;158177.97;4953108;28;20066;-77
2022/08/24 08:10:35;;;;;;;9.77;2.80;;;;;;;22.53;88.23;158181.88;4955169;28;20413;-76
2022/08/24 08:13:02;;;;;;;6.38;2.80;;;;;;;22.53;88.89;158181.88;4951374;28;20046;-75
2022/08/24 08:15:28;;;;;;;5.43;2.40;;;;;;;22.59;88.77;158196.06;4966121;28;20045;-76
2022/08/24 08:18:00;;;;;;;3.63;2.40;;;;;;;22.71;87.32;158228.31;4967432;28;20038;-76
2022/08/24 08:20:26;;;;;;;4.85;2.00;;;;;;;22.78;88.08;158243.88;4949832;28;20038;-75
2022/08/24 08:25:50;;;;;;;7.18;2.17;;;;;;;22.88;85.76;158270.97;4986331;28;20046;-76
2022/08/24 08:28:22;;;;;;;6.38;2.25;;;;;;;22.90;86.15;158274.84;4967334;28;20145;-76
2022/08/24 08:30:48;;;;;;;5.80;2.47;;;;;;;23.00;85.48;158300.72;4961435;28;20508;-76
2022/08/24 08:33:14;;;;;;;5.38;2.38;;;;;;;23.12;85.68;158331.75;4970041;28;20424;-75
2022/08/24 08:35:41;;;;;;;6.38;2.13;;;;;;;23.30;84.93;158375.66;4970703;28;20039;-76
2022/08/24 08:38:07;;;;;;;7.00;2.28;;;;;;;23.28;84.06;158370.50;4968118;28;20485;-76
2022/08/24 08:40:42;;;;;;;5.60;2.20;;;;;;;23.48;84.44;158420.94;4952794;28;20031;-77
2022/08/24 08:43:51;;;;;;;5.70;2.10;;;;;;;23.47;83.88;158419.66;4969728;28;20469;-77
2022/08/24 08:46:44;;;;;;;5.45;2.00;;;;;;;23.60;84.21;158450.63;4981430;28;20493;-76
2022/08/24 08:49:54;;;;;;;10.48;2.30;;;;;;;23.73;83.22;158484.25;4953919;28;20378;-77
2022/08/24 08:52:42;;;;;;;6.10;2.30;;;;;;;23.83;82.83;158510.16;4952205;28;20031;-75
2022/08/24 08:55:45;;;;;;;6.03;2.20;;;;;;;23.83;83.12;158510.16;4951960;28;20125;-77
2022/08/24 08:59:01;;;;;;;5.72;2.38;;;;;;;24.09;81.86;158574.78;4951730;28;20035;-76
2022/08/24 09:01:46;;;;;;;10.48;2.55;;;;;;;24.36;80.64;158642.03;4966014;28;20074;-78
2022/08/24 09:04:49;;;;;;;8.13;2.50;;;;;;;24.45;79.63;158666.59;4970098;28;21147;-76
2022/08/24 09:07:36;;;;;;;8.18;2.65;;;;;;;24.50;76.37;158678.22;4952011;28;20034;-77
2022/08/24 09:10:30;;;;;;;6.03;2.30;;;;;;;24.51;77.18;158680.81;4954239;28;20462;-77
2022/08/24 09:13:13;;;;;;;4.63;2.10;;;;;;;24.64;76.37;158713.22;4952630;28;20413;-78
2022/08/24 09:16:11;;;;;;;4.35;1.92;;;;;;;24.79;75.71;158752.00;4961694;28;20046;-77
2022/08/24 09:18:55;;;;;;;6.32;2.30;;;;;;;24.88;75.70;158773.94;4985616;28;20035;-77
2022/08/24 09:21:47;;;;;;;4.68;2.08;;;;;;;24.83;74.08;158761.06;4952816;28;20046;-78
2022/08/24 09:24:49;;;;;;;3.47;2.05;;;;;;;25.01;75.52;158806.28;4967205;28;20038;-76
2022/08/24 09:28:09;;;;;;;6.03;2.17;;;;;;;24.94;72.88;158788.19;4937036;28;20039;-76
2022/08/24 09:30:57;;;;;;;10.25;2.50;;;;;;;24.84;74.61;158763.63;4951270;28;20836;-76
2022/08/24 09:33:35;;;;;;;4.70;1.88;;;;;;;25.02;74.46;158810.19;4967327;28;20038;-77
2022/08/24 09:36:11;;;;;;;10.98;2.00;;;;;;;25.29;73.31;158876.22;4962701;28;20031;-74
2022/08/24 09:38:45;;;;;;;4.53;2.33;;;;;;;25.43;72.50;158913.72;4946061;28;20043;-78
2022/08/24 09:41:23;;;;;;;6.70;2.20;;;;;;;25.37;71.73;158898.22;4960908;28;20421;-77
2022/08/24 09:43:55;;;;;;;11.90;2.58;;;;;;;25.70;71.77;158979.72;4977782;28;20034;-77
2022/08/24 09:46:51;;;;;;;7.35;2.28;;;;;;;25.88;70.33;159026.28;4948860;28;20057;-77
2022/08/24 09:49:54;;;;;;;5.00;1.85;;;;;;;25.87;67.40;159022.41;4934972;28;20035;-78
2022/08/24 09:52:52;;;;;;;3.83;1.80;;;;;;;25.90;67.92;159030.13;4963037;28;20051;-76
2022/08/24 09:55:37;;;;;;;4.28;1.80;;;;;;;25.85;68.48;159018.50;4971683;28;20118;-76
2022/08/24 09:58:17;;;;;;;4.07;1.80;;;;;;;25.82;69.11;159012.06;4955611;28;20126;-76
2022/08/24 10:00:49;;;;;;;6.13;1.85;;;;;;;25.89;68.70;159027.56;4950100;28;20057;-77
2022/08/24 10:03:39;;;;;;;4.13;1.67;;;;;;;25.96;66.53;159047.03;4949406;28;20517;-76
2022/08/24 10:06:44;;;;;;;3.28;1.67;;;;;;;26.19;65.97;159105.25;4951560;28;20064;-76
2022/08/24 10:09:13;;;;;;;4.80;1.55;;;;;;;26.50;65.21;159181.59;4968529;28;20042;-78
2022/08/24 10:12:03;;;;;;;3.85;1.60;;;;;;;26.57;64.02;159199.72;4971592;28;20094;-77
2022/08/24 10:14:55;;;;;;;4.53;1.52;;;;;;;26.69;63.06;159229.53;4956251;28;20077;-76
2022/08/24 10:17:36;;;;;;;3.92;1.73;;;;;;;26.79;62.47;159255.44;4956321;28;20125;-75
2022/08/24 10:20:13;;;;;;;5.40;1.77;;;;;;;26.73;61.71;159241.22;4968996;28;20497;-77
2022/08/24 10:23:05;;;;;;;6.93;1.85;;;;;;;26.50;63.83;159181.59;4982284;28;20113;-78
2022/08/24 10:25:45;;;;;;;5.95;1.70;;;;;;;26.53;61.77;159190.66;4969682;28;20416;-78
2022/08/24 10:28:23;;;;;;;4.20;1.60;;;;;;;26.66;62.13;159221.81;4969366;28;20038;-76
2022/08/24 10:31:22;;;;;;;6.15;1.70;;;;;;;26.94;60.83;159294.28;4961549;28;20038;-78
2022/08/24 10:34:10;;;;;;;4.13;1.40;;;;;;;27.29;59.45;159381.06;4965252;28;20130;-76
2022/08/24 10:37:02;;;;;;;7.18;1.80;;;;;;;26.97;57.35;159302.06;4963398;28;20034;-77
2022/08/24 10:40:05;;;;;;;6.30;1.67;;;;;;;27.29;60.84;159382.34;4965770;28;20046;-77
2022/08/24 10:46:17;;;;;;;3.88;1.60;;;;;;;27.73;56.85;159493.72;4963544;28;20041;-77
2022/08/24 10:48:49;;;;;;;3.60;1.65;;;;;;;27.92;56.63;159541.69;4951882;28;20042;-76
2022/08/24 10:51:41;;;;;;;8.02;1.50;;;;;;;27.80;57.10;159509.25;4953976;28;20054;-78
2022/08/24 10:54:10;;;;;;;;;;;;;;;27.75;57.87;159497.63;4956759;28;20489;-76
2022/08/24 10:56:40;;;;;;;4.22;1.60;;;;;;;28.00;55.51;159561.13;4987155;28;20000;-76
2022/08/24 10:59:14;;;;;;;4.07;1.42;;;;;;;27.92;54.77;159540.41;4970629;28;20038;-76
2022/08/24 11:01:59;;;;;;;2.00;1.33;;;;;;;28.00;55.80;159561.13;4982191;28;20035;-77
2022/08/24 11:04:29;;;;;;;6.72;1.52;;;;;;;28.32;54.48;159642.72;4951616;28;20077;-75
2022/08/24 11:07:13;;;;;;;6.10;1.40;;;;;;;28.33;53.28;159644.00;4963069;28;20062;-77
2022/08/24 11:09:52;;;;;;;3.25;1.52;;;;;;;28.42;52.90;159666.03;4974101;28;20035;-76
2022/08/24 11:12:43;;;;;;;3.90;1.63;;;;;;;28.35;51.74;159649.22;4962740;28;20034;-76
2022/08/24 11:15:24;;;;;;;6.35;1.67;;;;;;;28.66;51.18;159728.25;4961309;28;20026;-76
2022/08/24 11:17:59;;;;;;;2.60;1.17;;;;;;;28.63;49.90;159720.50;4969681;28;20042;-76
2022/08/24 11:20:28;;;;;;;3.63;1.40;;;;;;;28.55;51.18;159699.75;4953548;28;20052;-77
2022/08/24 11:23:01;;;;;;;2.97;1.58;;;;;;;28.55;50.21;159699.75;4949809;28;20049;-78
2022/08/24 11:25:31;;;;;;;4.45;1.50;;;;;;;28.56;48.52;159701.03;4967070;28;20046;-75
2022/08/24 11:28:24;;;;;;;10.15;1.40;;;;;;;28.42;46.29;159667.31;4961430;28;20049;-77
2022/08/24 11:30:49;;;;;;;4.88;1.40;;;;;;;28.49;47.29;159684.16;4967758;28;20039;-79
2022/08/24 11:33:26;;;;;;;2.63;1.30;;;;;;;28.62;47.65;159717.91;4977879;28;20082;-77
2022/08/24 11:35:52;;;;;;;1.98;1.30;;;;;;;28.72;47.25;159742.50;4968727;28;20038;-77
2022/08/24 11:38:29;;;;;;;3.63;1.35;;;;;;;28.66;46.09;159728.25;4952415;28;20098;-77
2022/08/24 11:41:08;;;;;;;3.92;1.40;;;;;;;28.59;46.64;159708.81;4965812;28;20027;-76
2022/08/24 11:44:02;;;;;;;4.95;1.50;;;;;;;28.74;47.72;159747.69;4982535;28;20027;-77
2022/08/24 11:46:47;;;;;;;3.35;1.20;;;;;;;28.73;46.69;159745.13;4985179;28;20035;-76
2022/08/24 11:49:32;;;;;;;4.70;1.38;;;;;;;28.72;46.40;159742.50;4952236;28;20057;-77
2022/08/24 11:52:52;;;;;;;5.35;1.55;;;;;;;28.76;45.72;159751.56;4966175;28;20043;-77
2022/08/24 11:55:27;;;;;;;5.20;1.58;;;;;;;28.83;45.75;159769.72;4895852;29;20042;-77
2022/08/24 11:58:42;;;;;;;4.32;1.50;;;;;;;28.58;48.00;159706.25;4957548;28;20101;-77